sensor_id;sensor_type;location;lat;lon;timestamp;P1;durP1;ratioP1;P2;durP2;ratioP2
37297;SDS011;30517;51.932;4.278;2022-10-16T00:02:20;2.55;;;1.00;;
37297;SDS011;30517;51.932;4.278;2022-10-16T00:05:01;1.73;;;0.80;;
37297;SDS011;30517;51.932;4.278;2022-10-16T00:07:42;2.45;;;0.90;;
37297;SDS011;30517;51.932;4.278;2022-10-16T00:10:23;2.75;;;1.10;;
37297;SDS011;30517;51.932;4.278;2022-10-16T00:13:04;1.83;;;1.00;;
37297;SDS011;30517;51.932;4.278;2022-10-16T00:15:45;2.10;;;0.98;;
37297;SDS011;30517;51.932;4.278;2022-10-16T00:18:26;2.83;;;0.93;;
37297;SDS011;30517;51.932;4.278;2022-10-16T00:21:09;2.33;;;0.82;;
37297;SDS011;30517;51.932;4.278;2022-10-16T00:23:57;2.28;;;0.90;;
37297;SDS011;30517;51.932;4.278;2022-10-16T00:26:40;3.00;;;1.00;;
37297;SDS011;30517;51.932;4.278;2022-10-16T00:29:21;2.78;;;1.10;;
37297;SDS011;30517;51.932;4.278;2022-10-16T00:32:02;2.63;;;0.77;;
37297;SDS011;30517;51.932;4.278;2022-10-16T00:34:43;3.05;;;0.77;;
37297;SDS011;30517;51.932;4.278;2022-10-16T00:37:23;3.17;;;1.08;;
37297;SDS011;30517;51.932;4.278;2022-10-16T00:40:04;2.28;;;0.93;;
37297;SDS011;30517;51.932;4.278;2022-10-16T00:42:46;2.75;;;0.88;;
37297;SDS011;30517;51.932;4.278;2022-10-16T00:45:26;2.30;;;1.10;;
37297;SDS011;30517;51.932;4.278;2022-10-16T00:48:09;2.67;;;0.75;;
37297;SDS011;30517;51.932;4.278;2022-10-16T00:50:54;2.50;;;1.00;;
37297;SDS011;30517;51.932;4.278;2022-10-16T00:53:34;1.90;;;0.73;;
37297;SDS011;30517;51.932;4.278;2022-10-16T00:56:16;1.67;;;0.65;;
37297;SDS011;30517;51.932;4.278;2022-10-16T00:58:57;2.53;;;0.95;;
37297;SDS011;30517;51.932;4.278;2022-10-16T01:01:39;1.80;;;0.75;;
37297;SDS011;30517;51.932;4.278;2022-10-16T01:04:21;1.95;;;0.77;;
37297;SDS011;30517;51.932;4.278;2022-10-16T01:13:08;1.30;;;0.82;;
37297;SDS011;30517;51.932;4.278;2022-10-16T01:15:56;4.72;;;0.80;;
37297;SDS011;30517;51.932;4.278;2022-10-16T01:18:47;2.55;;;0.90;;
37297;SDS011;30517;51.932;4.278;2022-10-16T01:21:44;2.25;;;0.88;;
37297;SDS011;30517;51.932;4.278;2022-10-16T01:24:40;1.45;;;0.75;;
37297;SDS011;30517;51.932;4.278;2022-10-16T01:27:26;1.90;;;0.70;;
37297;SDS011;30517;51.932;4.278;2022-10-16T01:30:20;2.25;;;0.90;;
37297;SDS011;30517;51.932;4.278;2022-10-16T01:33:08;2.28;;;0.90;;
37297;SDS011;30517;51.932;4.278;2022-10-16T01:35:58;1.20;;;0.65;;
37297;SDS011;30517;51.932;4.278;2022-10-16T01:38:43;1.92;;;0.95;;
37297;SDS011;30517;51.932;4.278;2022-10-16T01:41:30;2.08;;;0.93;;
37297;SDS011;30517;51.932;4.278;2022-10-16T01:44:16;1.55;;;0.70;;
37297;SDS011;30517;51.932;4.278;2022-10-16T01:47:01;2.40;;;0.68;;
37297;SDS011;30517;51.932;4.278;2022-10-16T01:49:42;1.52;;;0.90;;
37297;SDS011;30517;51.932;4.278;2022-10-16T01:52:26;2.38;;;0.82;;
37297;SDS011;30517;51.932;4.278;2022-10-16T01:55:09;1.85;;;0.90;;
37297;SDS011;30517;51.932;4.278;2022-10-16T02:00:34;1.88;;;0.98;;
37297;SDS011;30517;51.932;4.278;2022-10-16T02:03:18;1.58;;;0.80;;
37297;SDS011;30517;51.932;4.278;2022-10-16T02:06:00;1.13;;;0.70;;
37297;SDS011;30517;51.932;4.278;2022-10-16T02:08:41;2.45;;;0.82;;
37297;SDS011;30517;51.932;4.278;2022-10-16T02:11:24;1.83;;;0.80;;
37297;SDS011;30517;51.932;4.278;2022-10-16T02:14:06;3.15;;;1.17;;
37297;SDS011;30517;51.932;4.278;2022-10-16T02:16:47;3.25;;;0.80;;
37297;SDS011;30517;51.932;4.278;2022-10-16T02:19:28;2.70;;;0.93;;
37297;SDS011;30517;51.932;4.278;2022-10-16T02:22:10;2.47;;;0.93;;
37297;SDS011;30517;51.932;4.278;2022-10-16T02:25:21;2.58;;;1.10;;
37297;SDS011;30517;51.932;4.278;2022-10-16T02:28:16;1.50;;;0.90;;
37297;SDS011;30517;51.932;4.278;2022-10-16T02:31:01;2.55;;;0.90;;
37297;SDS011;30517;51.932;4.278;2022-10-16T02:33:45;1.33;;;0.73;;
37297;SDS011;30517;51.932;4.278;2022-10-16T02:36:26;1.88;;;0.80;;
37297;SDS011;30517;51.932;4.278;2022-10-16T02:39:07;2.25;;;1.00;;
37297;SDS011;30517;51.932;4.278;2022-10-16T02:41:49;1.50;;;0.82;;
37297;SDS011;30517;51.932;4.278;2022-10-16T02:44:29;1.05;;;0.65;;
37297;SDS011;30517;51.932;4.278;2022-10-16T02:47:10;2.35;;;1.10;;
37297;SDS011;30517;51.932;4.278;2022-10-16T02:49:52;1.90;;;0.90;;
37297;SDS011;30517;51.932;4.278;2022-10-16T02:52:33;2.22;;;1.05;;
37297;SDS011;30517;51.932;4.278;2022-10-16T02:55:14;1.33;;;0.90;;
37297;SDS011;30517;51.932;4.278;2022-10-16T02:57:55;4.10;;;1.08;;
37297;SDS011;30517;51.932;4.278;2022-10-16T03:00:36;2.47;;;1.00;;
37297;SDS011;30517;51.932;4.278;2022-10-16T03:03:16;1.90;;;0.82;;
37297;SDS011;30517;51.932;4.278;2022-10-16T03:05:57;3.60;;;0.85;;
37297;SDS011;30517;51.932;4.278;2022-10-16T03:08:38;2.45;;;0.80;;
37297;SDS011;30517;51.932;4.278;2022-10-16T03:11:19;2.78;;;1.00;;
37297;SDS011;30517;51.932;4.278;2022-10-16T03:14:00;1.85;;;0.73;;
37297;SDS011;30517;51.932;4.278;2022-10-16T03:16:40;3.70;;;1.15;;
37297;SDS011;30517;51.932;4.278;2022-10-16T03:19:21;2.70;;;0.90;;
37297;SDS011;30517;51.932;4.278;2022-10-16T03:22:02;2.25;;;0.80;;
37297;SDS011;30517;51.932;4.278;2022-10-16T03:24:43;2.25;;;0.90;;
37297;SDS011;30517;51.932;4.278;2022-10-16T03:27:23;1.80;;;0.95;;
37297;SDS011;30517;51.932;4.278;2022-10-16T03:30:05;2.28;;;0.88;;
37297;SDS011;30517;51.932;4.278;2022-10-16T03:32:46;1.60;;;0.80;;
37297;SDS011;30517;51.932;4.278;2022-10-16T03:35:27;4.00;;;1.00;;
37297;SDS011;30517;51.932;4.278;2022-10-16T03:38:08;1.73;;;0.88;;
37297;SDS011;30517;51.932;4.278;2022-10-16T03:40:48;1.40;;;0.70;;
37297;SDS011;30517;51.932;4.278;2022-10-16T03:43:29;2.58;;;1.00;;
37297;SDS011;30517;51.932;4.278;2022-10-16T03:46:10;2.03;;;0.82;;
37297;SDS011;30517;51.932;4.278;2022-10-16T03:48:51;1.73;;;0.80;;
37297;SDS011;30517;51.932;4.278;2022-10-16T03:51:31;1.08;;;0.80;;
37297;SDS011;30517;51.932;4.278;2022-10-16T03:54:12;2.13;;;1.10;;
37297;SDS011;30517;51.932;4.278;2022-10-16T03:56:53;2.30;;;0.90;;
37297;SDS011;30517;51.932;4.278;2022-10-16T03:59:34;2.78;;;0.90;;
37297;SDS011;30517;51.932;4.278;2022-10-16T04:02:14;1.95;;;0.93;;
37297;SDS011;30517;51.932;4.278;2022-10-16T04:04:55;1.75;;;0.73;;
37297;SDS011;30517;51.932;4.278;2022-10-16T04:07:36;2.25;;;0.77;;
37297;SDS011;30517;51.932;4.278;2022-10-16T04:10:17;2.63;;;1.00;;
37297;SDS011;30517;51.932;4.278;2022-10-16T04:12:59;1.60;;;0.80;;
37297;SDS011;30517;51.932;4.278;2022-10-16T04:15:39;2.53;;;0.90;;
37297;SDS011;30517;51.932;4.278;2022-10-16T04:18:20;1.00;;;0.60;;
37297;SDS011;30517;51.932;4.278;2022-10-16T04:21:02;2.65;;;1.08;;
37297;SDS011;30517;51.932;4.278;2022-10-16T04:23:46;2.75;;;0.90;;
37297;SDS011;30517;51.932;4.278;2022-10-16T04:26:27;1.85;;;1.02;;
37297;SDS011;30517;51.932;4.278;2022-10-16T04:29:08;2.25;;;0.88;;
37297;SDS011;30517;51.932;4.278;2022-10-16T04:31:48;2.50;;;1.00;;
37297;SDS011;30517;51.932;4.278;2022-10-16T04:34:29;1.67;;;0.70;;
37297;SDS011;30517;51.932;4.278;2022-10-16T04:37:10;2.95;;;0.82;;
37297;SDS011;30517;51.932;4.278;2022-10-16T04:39:51;1.42;;;0.77;;
37297;SDS011;30517;51.932;4.278;2022-10-16T04:42:32;3.00;;;1.08;;
37297;SDS011;30517;51.932;4.278;2022-10-16T04:45:13;1.63;;;0.80;;
37297;SDS011;30517;51.932;4.278;2022-10-16T04:47:56;1.05;;;0.70;;
37297;SDS011;30517;51.932;4.278;2022-10-16T04:50:38;1.55;;;0.82;;
37297;SDS011;30517;51.932;4.278;2022-10-16T04:53:19;3.63;;;0.93;;
37297;SDS011;30517;51.932;4.278;2022-10-16T04:56:00;2.35;;;0.85;;
37297;SDS011;30517;51.932;4.278;2022-10-16T04:58:40;2.53;;;0.90;;
37297;SDS011;30517;51.932;4.278;2022-10-16T05:01:21;1.65;;;0.80;;
37297;SDS011;30517;51.932;4.278;2022-10-16T05:04:02;2.65;;;0.80;;
37297;SDS011;30517;51.932;4.278;2022-10-16T05:06:43;2.78;;;0.90;;
37297;SDS011;30517;51.932;4.278;2022-10-16T05:09:24;2.17;;;0.75;;
37297;SDS011;30517;51.932;4.278;2022-10-16T05:12:04;3.42;;;1.00;;
37297;SDS011;30517;51.932;4.278;2022-10-16T05:14:45;1.55;;;0.80;;
37297;SDS011;30517;51.932;4.278;2022-10-16T05:17:26;1.83;;;0.70;;
37297;SDS011;30517;51.932;4.278;2022-10-16T05:20:07;1.90;;;0.80;;
37297;SDS011;30517;51.932;4.278;2022-10-16T05:22:48;1.65;;;0.80;;
37297;SDS011;30517;51.932;4.278;2022-10-16T05:25:29;1.58;;;0.80;;
37297;SDS011;30517;51.932;4.278;2022-10-16T05:28:09;1.42;;;0.85;;
37297;SDS011;30517;51.932;4.278;2022-10-16T05:30:50;2.92;;;0.63;;
37297;SDS011;30517;51.932;4.278;2022-10-16T05:33:31;1.85;;;0.82;;
37297;SDS011;30517;51.932;4.278;2022-10-16T05:36:12;2.03;;;0.77;;
37297;SDS011;30517;51.932;4.278;2022-10-16T05:38:53;3.15;;;0.90;;
37297;SDS011;30517;51.932;4.278;2022-10-16T05:41:34;1.85;;;0.90;;
37297;SDS011;30517;51.932;4.278;2022-10-16T05:44:14;2.15;;;0.90;;
37297;SDS011;30517;51.932;4.278;2022-10-16T05:46:55;1.45;;;0.70;;
37297;SDS011;30517;51.932;4.278;2022-10-16T05:49:36;3.42;;;0.82;;
37297;SDS011;30517;51.932;4.278;2022-10-16T05:52:17;1.75;;;0.80;;
37297;SDS011;30517;51.932;4.278;2022-10-16T05:54:57;1.17;;;0.63;;
37297;SDS011;30517;51.932;4.278;2022-10-16T05:57:38;1.52;;;0.60;;
37297;SDS011;30517;51.932;4.278;2022-10-16T06:00:19;2.05;;;0.98;;
37297;SDS011;30517;51.932;4.278;2022-10-16T06:03:00;4.07;;;1.00;;
37297;SDS011;30517;51.932;4.278;2022-10-16T06:05:40;2.25;;;1.00;;
37297;SDS011;30517;51.932;4.278;2022-10-16T06:08:23;0.82;;;0.68;;
37297;SDS011;30517;51.932;4.278;2022-10-16T06:11:04;1.38;;;0.80;;
37297;SDS011;30517;51.932;4.278;2022-10-16T06:13:50;1.17;;;0.70;;
37297;SDS011;30517;51.932;4.278;2022-10-16T06:16:36;1.58;;;0.80;;
37297;SDS011;30517;51.932;4.278;2022-10-16T06:19:17;1.20;;;0.70;;
37297;SDS011;30517;51.932;4.278;2022-10-16T06:21:58;1.55;;;0.85;;
37297;SDS011;30517;51.932;4.278;2022-10-16T06:24:40;1.63;;;0.52;;
37297;SDS011;30517;51.932;4.278;2022-10-16T06:27:20;2.17;;;0.73;;
37297;SDS011;30517;51.932;4.278;2022-10-16T06:30:01;0.70;;;0.52;;
37297;SDS011;30517;51.932;4.278;2022-10-16T06:32:43;3.22;;;1.45;;
37297;SDS011;30517;51.932;4.278;2022-10-16T06:35:24;1.55;;;0.75;;
37297;SDS011;30517;51.932;4.278;2022-10-16T06:38:05;3.35;;;0.77;;
37297;SDS011;30517;51.932;4.278;2022-10-16T06:40:46;2.28;;;0.85;;
37297;SDS011;30517;51.932;4.278;2022-10-16T06:43:29;1.55;;;0.90;;
37297;SDS011;30517;51.932;4.278;2022-10-16T06:46:13;2.60;;;0.77;;
37297;SDS011;30517;51.932;4.278;2022-10-16T06:48:55;1.70;;;1.00;;
37297;SDS011;30517;51.932;4.278;2022-10-16T06:51:36;2.35;;;0.93;;
37297;SDS011;30517;51.932;4.278;2022-10-16T06:54:20;1.75;;;0.75;;
37297;SDS011;30517;51.932;4.278;2022-10-16T06:57:01;0.60;;;0.50;;
37297;SDS011;30517;51.932;4.278;2022-10-16T06:59:42;2.33;;;0.82;;
37297;SDS011;30517;51.932;4.278;2022-10-16T07:02:23;2.22;;;0.82;;
37297;SDS011;30517;51.932;4.278;2022-10-16T07:05:04;1.52;;;0.70;;
37297;SDS011;30517;51.932;4.278;2022-10-16T07:07:44;1.45;;;0.70;;
37297;SDS011;30517;51.932;4.278;2022-10-16T07:10:25;1.80;;;0.70;;
37297;SDS011;30517;51.932;4.278;2022-10-16T07:13:06;1.20;;;0.73;;
37297;SDS011;30517;51.932;4.278;2022-10-16T07:15:47;1.20;;;0.60;;
37297;SDS011;30517;51.932;4.278;2022-10-16T07:18:28;1.48;;;0.70;;
37297;SDS011;30517;51.932;4.278;2022-10-16T07:21:10;2.20;;;0.85;;
37297;SDS011;30517;51.932;4.278;2022-10-16T07:23:59;2.28;;;0.75;;
37297;SDS011;30517;51.932;4.278;2022-10-16T07:26:41;2.40;;;0.73;;
37297;SDS011;30517;51.932;4.278;2022-10-16T07:29:23;1.77;;;0.80;;
37297;SDS011;30517;51.932;4.278;2022-10-16T07:32:04;2.90;;;0.80;;
37297;SDS011;30517;51.932;4.278;2022-10-16T07:34:45;2.10;;;0.60;;
37297;SDS011;30517;51.932;4.278;2022-10-16T07:37:26;1.55;;;0.80;;
37297;SDS011;30517;51.932;4.278;2022-10-16T07:40:07;2.00;;;0.70;;
37297;SDS011;30517;51.932;4.278;2022-10-16T07:42:48;4.03;;;1.13;;
37297;SDS011;30517;51.932;4.278;2022-10-16T07:45:29;2.35;;;0.90;;
37297;SDS011;30517;51.932;4.278;2022-10-16T07:48:10;1.85;;;0.75;;
37297;SDS011;30517;51.932;4.278;2022-10-16T07:50:50;3.03;;;0.80;;
37297;SDS011;30517;51.932;4.278;2022-10-16T07:53:32;2.35;;;0.98;;
37297;SDS011;30517;51.932;4.278;2022-10-16T07:56:14;1.77;;;0.70;;
37297;SDS011;30517;51.932;4.278;2022-10-16T07:58:55;4.47;;;0.82;;
37297;SDS011;30517;51.932;4.278;2022-10-16T08:01:36;1.77;;;0.73;;
37297;SDS011;30517;51.932;4.278;2022-10-16T08:04:17;0.90;;;0.60;;
37297;SDS011;30517;51.932;4.278;2022-10-16T08:06:58;1.92;;;0.60;;
37297;SDS011;30517;51.932;4.278;2022-10-16T08:09:39;1.05;;;0.60;;
37297;SDS011;30517;51.932;4.278;2022-10-16T08:12:20;1.23;;;0.60;;
37297;SDS011;30517;51.932;4.278;2022-10-16T08:15:00;2.30;;;0.82;;
37297;SDS011;30517;51.932;4.278;2022-10-16T08:17:41;5.38;;;1.00;;
37297;SDS011;30517;51.932;4.278;2022-10-16T08:20:22;3.88;;;1.15;;
37297;SDS011;30517;51.932;4.278;2022-10-16T08:23:03;3.05;;;0.90;;
37297;SDS011;30517;51.932;4.278;2022-10-16T08:25:44;3.33;;;0.82;;
37297;SDS011;30517;51.932;4.278;2022-10-16T08:28:25;1.95;;;0.80;;
37297;SDS011;30517;51.932;4.278;2022-10-16T08:31:06;3.55;;;1.00;;
37297;SDS011;30517;51.932;4.278;2022-10-16T08:33:55;3.58;;;0.90;;
37297;SDS011;30517;51.932;4.278;2022-10-16T08:36:36;2.58;;;0.90;;
37297;SDS011;30517;51.932;4.278;2022-10-16T08:39:17;1.75;;;0.80;;
37297;SDS011;30517;51.932;4.278;2022-10-16T08:42:04;1.92;;;0.80;;
37297;SDS011;30517;51.932;4.278;2022-10-16T08:45:02;2.50;;;0.73;;
37297;SDS011;30517;51.932;4.278;2022-10-16T08:48:09;1.85;;;0.82;;
37297;SDS011;30517;51.932;4.278;2022-10-16T08:51:06;3.70;;;0.90;;
37297;SDS011;30517;51.932;4.278;2022-10-16T08:53:58;2.47;;;1.02;;
37297;SDS011;30517;51.932;4.278;2022-10-16T08:56:42;3.80;;;1.00;;
37297;SDS011;30517;51.932;4.278;2022-10-16T08:59:23;1.58;;;0.73;;
37297;SDS011;30517;51.932;4.278;2022-10-16T09:02:08;3.88;;;0.90;;
37297;SDS011;30517;51.932;4.278;2022-10-16T09:16:34;3.22;;;0.93;;
37297;SDS011;30517;51.932;4.278;2022-10-16T09:19:21;1.75;;;0.75;;
37297;SDS011;30517;51.932;4.278;2022-10-16T09:22:14;4.18;;;0.90;;
37297;SDS011;30517;51.932;4.278;2022-10-16T09:24:59;3.78;;;0.88;;
37297;SDS011;30517;51.932;4.278;2022-10-16T09:27:42;2.63;;;0.90;;
37297;SDS011;30517;51.932;4.278;2022-10-16T09:30:26;4.85;;;1.20;;
37297;SDS011;30517;51.932;4.278;2022-10-16T09:33:10;1.10;;;0.68;;
37297;SDS011;30517;51.932;4.278;2022-10-16T09:35:53;1.63;;;0.68;;
37297;SDS011;30517;51.932;4.278;2022-10-16T09:38:35;3.63;;;0.93;;
37297;SDS011;30517;51.932;4.278;2022-10-16T09:41:18;1.15;;;0.57;;
37297;SDS011;30517;51.932;4.278;2022-10-16T09:44:01;3.03;;;0.65;;
37297;SDS011;30517;51.932;4.278;2022-10-16T09:46:44;1.33;;;0.77;;
37297;SDS011;30517;51.932;4.278;2022-10-16T09:49:25;5.15;;;1.08;;
37297;SDS011;30517;51.932;4.278;2022-10-16T09:52:13;3.92;;;1.10;;
37297;SDS011;30517;51.932;4.278;2022-10-16T09:57:51;2.30;;;0.90;;
37297;SDS011;30517;51.932;4.278;2022-10-16T10:00:32;3.78;;;0.85;;
37297;SDS011;30517;51.932;4.278;2022-10-16T10:03:13;1.98;;;0.82;;
37297;SDS011;30517;51.932;4.278;2022-10-16T10:06:14;3.33;;;0.80;;
37297;SDS011;30517;51.932;4.278;2022-10-16T10:09:00;4.10;;;1.30;;
37297;SDS011;30517;51.932;4.278;2022-10-16T10:14:37;3.03;;;0.88;;
37297;SDS011;30517;51.932;4.278;2022-10-16T10:17:22;3.08;;;0.75;;
37297;SDS011;30517;51.932;4.278;2022-10-16T10:20:24;1.25;;;0.68;;
37297;SDS011;30517;51.932;4.278;2022-10-16T10:23:20;4.95;;;0.88;;
37297;SDS011;30517;51.932;4.278;2022-10-16T10:29:06;2.35;;;0.82;;
37297;SDS011;30517;51.932;4.278;2022-10-16T10:35:18;2.70;;;1.02;;
37297;SDS011;30517;51.932;4.278;2022-10-16T11:08:17;5.20;;;1.27;;
37297;SDS011;30517;51.932;4.278;2022-10-16T11:11:03;6.32;;;1.38;;
37297;SDS011;30517;51.932;4.278;2022-10-16T11:13:59;5.72;;;1.45;;
37297;SDS011;30517;51.932;4.278;2022-10-16T11:19:51;6.57;;;1.30;;
37297;SDS011;30517;51.932;4.278;2022-10-16T11:22:38;4.45;;;1.10;;
37297;SDS011;30517;51.932;4.278;2022-10-16T11:34:34;5.30;;;1.10;;
37297;SDS011;30517;51.932;4.278;2022-10-16T11:37:24;4.45;;;1.35;;
37297;SDS011;30517;51.932;4.278;2022-10-16T11:40:16;7.95;;;1.23;;
37297;SDS011;30517;51.932;4.278;2022-10-16T11:46:10;5.47;;;1.52;;
37297;SDS011;30517;51.932;4.278;2022-10-16T11:49:01;3.10;;;1.00;;
37297;SDS011;30517;51.932;4.278;2022-10-16T11:55:16;3.53;;;1.02;;
37297;SDS011;30517;51.932;4.278;2022-10-16T11:58:05;7.88;;;1.27;;
37297;SDS011;30517;51.932;4.278;2022-10-16T12:03:59;4.75;;;1.08;;
37297;SDS011;30517;51.932;4.278;2022-10-16T12:09:42;5.30;;;1.23;;
37297;SDS011;30517;51.932;4.278;2022-10-16T12:12:27;4.10;;;0.93;;
37297;SDS011;30517;51.932;4.278;2022-10-16T12:15:25;4.00;;;0.90;;
37297;SDS011;30517;51.932;4.278;2022-10-16T12:18:20;5.07;;;1.35;;
37297;SDS011;30517;51.932;4.278;2022-10-16T12:21:05;4.85;;;1.23;;
37297;SDS011;30517;51.932;4.278;2022-10-16T12:23:56;4.15;;;0.93;;
37297;SDS011;30517;51.932;4.278;2022-10-16T12:26:40;5.90;;;1.10;;
37297;SDS011;30517;51.932;4.278;2022-10-16T12:29:31;4.15;;;1.10;;
37297;SDS011;30517;51.932;4.278;2022-10-16T12:32:33;4.57;;;1.05;;
37297;SDS011;30517;51.932;4.278;2022-10-16T12:35:20;5.00;;;1.20;;
37297;SDS011;30517;51.932;4.278;2022-10-16T12:38:07;3.10;;;1.00;;
37297;SDS011;30517;51.932;4.278;2022-10-16T12:43:43;2.42;;;0.73;;
37297;SDS011;30517;51.932;4.278;2022-10-16T12:54:35;5.32;;;1.70;;
37297;SDS011;30517;51.932;4.278;2022-10-16T13:00:27;6.40;;;1.70;;
37297;SDS011;30517;51.932;4.278;2022-10-16T13:03:26;7.03;;;1.45;;
37297;SDS011;30517;51.932;4.278;2022-10-16T13:06:45;6.78;;;1.80;;
37297;SDS011;30517;51.932;4.278;2022-10-16T13:12:45;5.85;;;1.40;;
37297;SDS011;30517;51.932;4.278;2022-10-16T13:24:46;9.73;;;1.77;;
37297;SDS011;30517;51.932;4.278;2022-10-16T13:27:56;7.28;;;1.60;;
37297;SDS011;30517;51.932;4.278;2022-10-16T13:30:41;5.40;;;1.23;;
37297;SDS011;30517;51.932;4.278;2022-10-16T13:36:05;7.20;;;1.60;;
37297;SDS011;30517;51.932;4.278;2022-10-16T13:38:47;7.22;;;1.75;;
37297;SDS011;30517;51.932;4.278;2022-10-16T13:41:28;8.05;;;2.03;;
37297;SDS011;30517;51.932;4.278;2022-10-16T13:44:18;10.05;;;2.78;;
37297;SDS011;30517;51.932;4.278;2022-10-16T13:47:01;6.30;;;1.25;;
37297;SDS011;30517;51.932;4.278;2022-10-16T13:49:42;5.25;;;1.50;;
37297;SDS011;30517;51.932;4.278;2022-10-16T13:52:23;6.70;;;1.42;;
37297;SDS011;30517;51.932;4.278;2022-10-16T13:55:14;9.05;;;1.65;;
37297;SDS011;30517;51.932;4.278;2022-10-16T13:58:13;8.02;;;1.27;;
37297;SDS011;30517;51.932;4.278;2022-10-16T14:00:56;5.38;;;1.23;;
37297;SDS011;30517;51.932;4.278;2022-10-16T14:03:41;6.60;;;1.60;;
37297;SDS011;30517;51.932;4.278;2022-10-16T14:06:23;4.45;;;1.27;;
37297;SDS011;30517;51.932;4.278;2022-10-16T14:09:09;6.05;;;1.63;;
37297;SDS011;30517;51.932;4.278;2022-10-16T14:12:03;6.63;;;1.58;;
37297;SDS011;30517;51.932;4.278;2022-10-16T14:14:49;4.07;;;1.27;;
37297;SDS011;30517;51.932;4.278;2022-10-16T14:17:34;4.90;;;1.02;;
37297;SDS011;30517;51.932;4.278;2022-10-16T14:20:16;2.92;;;1.02;;
37297;SDS011;30517;51.932;4.278;2022-10-16T14:23:02;5.32;;;1.30;;
37297;SDS011;30517;51.932;4.278;2022-10-16T14:25:44;5.32;;;1.13;;
37297;SDS011;30517;51.932;4.278;2022-10-16T14:28:26;3.10;;;1.30;;
37297;SDS011;30517;51.932;4.278;2022-10-16T14:33:59;3.70;;;0.88;;
37297;SDS011;30517;51.932;4.278;2022-10-16T14:36:40;4.60;;;1.35;;
37297;SDS011;30517;51.932;4.278;2022-10-16T14:39:22;3.15;;;0.90;;
37297;SDS011;30517;51.932;4.278;2022-10-16T14:42:11;3.50;;;1.05;;
37297;SDS011;30517;51.932;4.278;2022-10-16T14:44:57;5.78;;;1.10;;
37297;SDS011;30517;51.932;4.278;2022-10-16T14:47:45;5.68;;;1.00;;
37297;SDS011;30517;51.932;4.278;2022-10-16T14:50:30;3.78;;;1.20;;
37297;SDS011;30517;51.932;4.278;2022-10-16T14:53:11;3.88;;;1.02;;
37297;SDS011;30517;51.932;4.278;2022-10-16T14:55:52;3.65;;;0.88;;
37297;SDS011;30517;51.932;4.278;2022-10-16T14:58:33;3.83;;;0.95;;
37297;SDS011;30517;51.932;4.278;2022-10-16T15:01:15;2.60;;;0.80;;
37297;SDS011;30517;51.932;4.278;2022-10-16T15:03:56;4.35;;;0.90;;
37297;SDS011;30517;51.932;4.278;2022-10-16T15:06:37;3.35;;;1.33;;
37297;SDS011;30517;51.932;4.278;2022-10-16T15:09:17;2.50;;;0.80;;
37297;SDS011;30517;51.932;4.278;2022-10-16T15:11:58;4.15;;;1.15;;
37297;SDS011;30517;51.932;4.278;2022-10-16T15:14:39;3.05;;;0.95;;
37297;SDS011;30517;51.932;4.278;2022-10-16T15:17:20;4.80;;;1.02;;
37297;SDS011;30517;51.932;4.278;2022-10-16T15:20:00;4.03;;;0.75;;
37297;SDS011;30517;51.932;4.278;2022-10-16T15:22:41;2.05;;;0.70;;
37297;SDS011;30517;51.932;4.278;2022-10-16T15:25:27;5.15;;;1.08;;
37297;SDS011;30517;51.932;4.278;2022-10-16T15:28:22;4.88;;;0.85;;
37297;SDS011;30517;51.932;4.278;2022-10-16T15:31:04;3.60;;;0.95;;
37297;SDS011;30517;51.932;4.278;2022-10-16T15:33:45;2.13;;;0.65;;
37297;SDS011;30517;51.932;4.278;2022-10-16T15:36:34;3.10;;;0.85;;
37297;SDS011;30517;51.932;4.278;2022-10-16T15:41:59;1.02;;;0.50;;
37297;SDS011;30517;51.932;4.278;2022-10-16T15:44:39;3.20;;;1.00;;
37297;SDS011;30517;51.932;4.278;2022-10-16T15:47:20;3.53;;;1.20;;
37297;SDS011;30517;51.932;4.278;2022-10-16T15:50:01;4.35;;;1.02;;
37297;SDS011;30517;51.932;4.278;2022-10-16T15:52:42;2.65;;;0.90;;
37297;SDS011;30517;51.932;4.278;2022-10-16T15:55:24;2.20;;;0.80;;
37297;SDS011;30517;51.932;4.278;2022-10-16T15:58:05;3.03;;;1.00;;
37297;SDS011;30517;51.932;4.278;2022-10-16T16:00:53;3.13;;;0.95;;
37297;SDS011;30517;51.932;4.278;2022-10-16T16:03:35;2.33;;;0.65;;
37297;SDS011;30517;51.932;4.278;2022-10-16T16:06:17;2.80;;;0.80;;
37297;SDS011;30517;51.932;4.278;2022-10-16T16:08:58;2.33;;;0.75;;
37297;SDS011;30517;51.932;4.278;2022-10-16T16:11:39;4.47;;;1.13;;
37297;SDS011;30517;51.932;4.278;2022-10-16T16:14:20;3.67;;;0.80;;
37297;SDS011;30517;51.932;4.278;2022-10-16T16:17:01;3.60;;;0.98;;
37297;SDS011;30517;51.932;4.278;2022-10-16T16:19:42;2.67;;;1.55;;
37297;SDS011;30517;51.932;4.278;2022-10-16T16:22:23;3.25;;;0.75;;
37297;SDS011;30517;51.932;4.278;2022-10-16T16:25:04;1.20;;;0.60;;
37297;SDS011;30517;51.932;4.278;2022-10-16T16:27:45;2.45;;;0.90;;
37297;SDS011;30517;51.932;4.278;2022-10-16T16:30:26;2.33;;;0.70;;
37297;SDS011;30517;51.932;4.278;2022-10-16T16:33:06;2.58;;;0.80;;
37297;SDS011;30517;51.932;4.278;2022-10-16T16:35:47;3.28;;;0.80;;
37297;SDS011;30517;51.932;4.278;2022-10-16T16:38:28;1.27;;;0.50;;
37297;SDS011;30517;51.932;4.278;2022-10-16T16:41:20;2.67;;;1.05;;
37297;SDS011;30517;51.932;4.278;2022-10-16T16:44:03;2.10;;;0.80;;
37297;SDS011;30517;51.932;4.278;2022-10-16T16:46:48;1.75;;;0.57;;
37297;SDS011;30517;51.932;4.278;2022-10-16T16:49:29;2.40;;;0.70;;
37297;SDS011;30517;51.932;4.278;2022-10-16T16:52:11;3.22;;;0.80;;
37297;SDS011;30517;51.932;4.278;2022-10-16T16:54:53;3.70;;;0.80;;
37297;SDS011;30517;51.932;4.278;2022-10-16T16:57:33;1.88;;;0.70;;
37297;SDS011;30517;51.932;4.278;2022-10-16T17:00:14;3.00;;;1.00;;
37297;SDS011;30517;51.932;4.278;2022-10-16T17:02:55;1.42;;;0.65;;
37297;SDS011;30517;51.932;4.278;2022-10-16T17:05:37;3.20;;;0.80;;
37297;SDS011;30517;51.932;4.278;2022-10-16T17:08:17;2.05;;;0.70;;
37297;SDS011;30517;51.932;4.278;2022-10-16T17:10:58;3.35;;;0.80;;
37297;SDS011;30517;51.932;4.278;2022-10-16T17:13:39;2.78;;;0.70;;
37297;SDS011;30517;51.932;4.278;2022-10-16T17:16:20;2.13;;;0.73;;
37297;SDS011;30517;51.932;4.278;2022-10-16T17:19:04;1.65;;;0.60;;
37297;SDS011;30517;51.932;4.278;2022-10-16T17:21:50;1.80;;;0.73;;
37297;SDS011;30517;51.932;4.278;2022-10-16T17:24:31;1.65;;;0.80;;
37297;SDS011;30517;51.932;4.278;2022-10-16T17:27:12;1.42;;;0.68;;
37297;SDS011;30517;51.932;4.278;2022-10-16T17:29:53;2.47;;;0.75;;
37297;SDS011;30517;51.932;4.278;2022-10-16T17:32:34;3.20;;;1.00;;
37297;SDS011;30517;51.932;4.278;2022-10-16T17:35:15;2.65;;;0.80;;
37297;SDS011;30517;51.932;4.278;2022-10-16T17:37:56;2.25;;;0.70;;
37297;SDS011;30517;51.932;4.278;2022-10-16T17:40:37;2.60;;;0.85;;
37297;SDS011;30517;51.932;4.278;2022-10-16T17:43:18;2.20;;;0.88;;
37297;SDS011;30517;51.932;4.278;2022-10-16T17:46:01;2.67;;;1.30;;
37297;SDS011;30517;51.932;4.278;2022-10-16T17:48:43;2.53;;;0.80;;
37297;SDS011;30517;51.932;4.278;2022-10-16T17:51:26;4.13;;;1.25;;
37297;SDS011;30517;51.932;4.278;2022-10-16T17:54:11;1.85;;;1.00;;
37297;SDS011;30517;51.932;4.278;2022-10-16T17:56:53;3.15;;;0.80;;
37297;SDS011;30517;51.932;4.278;2022-10-16T17:59:34;1.77;;;0.80;;
37297;SDS011;30517;51.932;4.278;2022-10-16T18:02:15;3.58;;;1.05;;
37297;SDS011;30517;51.932;4.278;2022-10-16T18:04:57;2.95;;;1.10;;
37297;SDS011;30517;51.932;4.278;2022-10-16T18:07:39;2.35;;;0.77;;
37297;SDS011;30517;51.932;4.278;2022-10-16T18:10:20;1.98;;;0.60;;
37297;SDS011;30517;51.932;4.278;2022-10-16T18:13:01;2.60;;;0.77;;
37297;SDS011;30517;51.932;4.278;2022-10-16T18:15:42;2.58;;;1.02;;
37297;SDS011;30517;51.932;4.278;2022-10-16T18:18:23;1.40;;;0.73;;
37297;SDS011;30517;51.932;4.278;2022-10-16T18:21:05;2.35;;;0.80;;
37297;SDS011;30517;51.932;4.278;2022-10-16T18:26:29;2.15;;;0.75;;
37297;SDS011;30517;51.932;4.278;2022-10-16T18:29:10;2.58;;;0.73;;
37297;SDS011;30517;51.932;4.278;2022-10-16T18:31:52;2.38;;;0.70;;